sensor_id;sensor_type;location;lat;lon;timestamp;P1;durP1;ratioP1;P2;durP2;ratioP2
12689;SDS011;6409;56.294;14.480;2023-05-18T00:00:43;0.50;;;0.50;;
12689;SDS011;6409;56.294;14.480;2023-05-18T00:03:10;0.40;;;0.40;;
12689;SDS011;6409;56.294;14.480;2023-05-18T00:05:39;0.57;;;0.50;;
12689;SDS011;6409;56.294;14.480;2023-05-18T00:08:06;0.80;;;0.80;;
12689;SDS011;6409;56.294;14.480;2023-05-18T00:10:33;0.40;;;0.40;;
12689;SDS011;6409;56.294;14.480;2023-05-18T00:13:00;0.50;;;0.50;;
12689;SDS011;6409;56.294;14.480;2023-05-18T00:15:29;0.63;;;0.63;;
12689;SDS011;6409;56.294;14.480;2023-05-18T00:17:56;0.43;;;0.40;;
12689;SDS011;6409;56.294;14.480;2023-05-18T00:20:23;0.30;;;0.30;;
12689;SDS011;6409;56.294;14.480;2023-05-18T00:22:52;0.50;;;0.50;;
12689;SDS011;6409;56.294;14.480;2023-05-18T00:25:19;1.50;;;0.67;;
12689;SDS011;6409;56.294;14.480;2023-05-18T00:27:46;0.30;;;0.30;;
12689;SDS011;6409;56.294;14.480;2023-05-18T00:30:15;1.57;;;1.30;;
12689;SDS011;6409;56.294;14.480;2023-05-18T00:32:42;0.40;;;0.40;;
12689;SDS011;6409;56.294;14.480;2023-05-18T00:35:10;0.43;;;0.43;;
12689;SDS011;6409;56.294;14.480;2023-05-18T00:37:36;0.40;;;0.40;;
12689;SDS011;6409;56.294;14.480;2023-05-18T00:40:05;0.40;;;0.40;;
12689;SDS011;6409;56.294;14.480;2023-05-18T00:42:33;0.60;;;0.60;;
12689;SDS011;6409;56.294;14.480;2023-05-18T00:45:00;0.30;;;0.30;;
12689;SDS011;6409;56.294;14.480;2023-05-18T00:47:27;0.50;;;0.50;;
12689;SDS011;6409;56.294;14.480;2023-05-18T00:49:54;0.30;;;0.30;;
12689;SDS011;6409;56.294;14.480;2023-05-18T00:52:21;0.63;;;0.63;;
12689;SDS011;6409;56.294;14.480;2023-05-18T00:54:48;0.30;;;0.30;;
12689;SDS011;6409;56.294;14.480;2023-05-18T00:57:17;0.50;;;0.50;;
12689;SDS011;6409;56.294;14.480;2023-05-18T00:59:44;0.40;;;0.40;;
12689;SDS011;6409;56.294;14.480;2023-05-18T01:02:12;0.30;;;0.30;;
12689;SDS011;6409;56.294;14.480;2023-05-18T01:04:39;0.30;;;0.30;;
12689;SDS011;6409;56.294;14.480;2023-05-18T01:07:07;0.33;;;0.33;;
12689;SDS011;6409;56.294;14.480;2023-05-18T01:09:35;0.30;;;0.30;;
12689;SDS011;6409;56.294;14.480;2023-05-18T01:12:05;0.23;;;0.23;;
12689;SDS011;6409;56.294;14.480;2023-05-18T01:14:40;0.87;;;0.40;;
12689;SDS011;6409;56.294;14.480;2023-05-18T01:17:19;0.30;;;0.30;;
12689;SDS011;6409;56.294;14.480;2023-05-18T01:19:59;0.40;;;0.40;;
12689;SDS011;6409;56.294;14.480;2023-05-18T01:22:36;4.70;;;0.40;;
12689;SDS011;6409;56.294;14.480;2023-05-18T01:25:11;0.30;;;0.30;;
12689;SDS011;6409;56.294;14.480;2023-05-18T01:27:45;0.30;;;0.30;;
12689;SDS011;6409;56.294;14.480;2023-05-18T01:30:13;0.40;;;0.40;;
12689;SDS011;6409;56.294;14.480;2023-05-18T01:32:42;0.30;;;0.30;;
12689;SDS011;6409;56.294;14.480;2023-05-18T01:35:11;0.40;;;0.40;;
12689;SDS011;6409;56.294;14.480;2023-05-18T01:37:38;0.40;;;0.40;;
12689;SDS011;6409;56.294;14.480;2023-05-18T01:40:05;0.30;;;0.30;;
12689;SDS011;6409;56.294;14.480;2023-05-18T01:42:36;0.30;;;0.30;;
12689;SDS011;6409;56.294;14.480;2023-05-18T01:45:12;0.30;;;0.30;;
12689;SDS011;6409;56.294;14.480;2023-05-18T01:47:41;0.40;;;0.40;;
12689;SDS011;6409;56.294;14.480;2023-05-18T01:50:12;0.40;;;0.40;;
12689;SDS011;6409;56.294;14.480;2023-05-18T01:52:41;0.40;;;0.40;;
12689;SDS011;6409;56.294;14.480;2023-05-18T01:55:10;0.47;;;0.47;;
12689;SDS011;6409;56.294;14.480;2023-05-18T01:57:40;1.60;;;0.40;;
12689;SDS011;6409;56.294;14.480;2023-05-18T02:00:11;0.30;;;0.30;;
12689;SDS011;6409;56.294;14.480;2023-05-18T02:02:40;0.30;;;0.30;;
12689;SDS011;6409;56.294;14.480;2023-05-18T02:05:07;0.40;;;0.40;;
12689;SDS011;6409;56.294;14.480;2023-05-18T02:07:36;2.73;;;0.70;;
12689;SDS011;6409;56.294;14.480;2023-05-18T02:10:03;0.40;;;0.40;;
12689;SDS011;6409;56.294;14.480;2023-05-18T02:12:31;0.33;;;0.33;;
12689;SDS011;6409;56.294;14.480;2023-05-18T02:14:58;1.43;;;1.17;;
12689;SDS011;6409;56.294;14.480;2023-05-18T02:17:30;0.30;;;0.30;;
12689;SDS011;6409;56.294;14.480;2023-05-18T02:19:58;0.40;;;0.40;;
12689;SDS011;6409;56.294;14.480;2023-05-18T02:22:25;0.30;;;0.30;;
12689;SDS011;6409;56.294;14.480;2023-05-18T02:24:52;0.40;;;0.40;;
12689;SDS011;6409;56.294;14.480;2023-05-18T02:27:20;0.30;;;0.30;;
12689;SDS011;6409;56.294;14.480;2023-05-18T02:29:47;0.40;;;0.40;;
12689;SDS011;6409;56.294;14.480;2023-05-18T02:32:14;0.67;;;0.53;;
12689;SDS011;6409;56.294;14.480;2023-05-18T02:34:42;0.30;;;0.30;;
12689;SDS011;6409;56.294;14.480;2023-05-18T02:37:10;10.20;;;0.50;;
12689;SDS011;6409;56.294;14.480;2023-05-18T02:39:38;0.23;;;0.23;;
12689;SDS011;6409;56.294;14.480;2023-05-18T02:42:05;3.30;;;0.40;;
12689;SDS011;6409;56.294;14.480;2023-05-18T02:44:32;0.57;;;0.57;;
12689;SDS011;6409;56.294;14.480;2023-05-18T02:46:59;0.33;;;0.33;;
12689;SDS011;6409;56.294;14.480;2023-05-18T02:49:26;0.30;;;0.30;;
12689;SDS011;6409;56.294;14.480;2023-05-18T02:51:54;0.40;;;0.40;;
12689;SDS011;6409;56.294;14.480;2023-05-18T02:54:21;1.37;;;0.47;;
12689;SDS011;6409;56.294;14.480;2023-05-18T02:56:48;0.40;;;0.40;;
12689;SDS011;6409;56.294;14.480;2023-05-18T02:59:15;0.20;;;0.20;;
12689;SDS011;6409;56.294;14.480;2023-05-18T03:01:42;0.30;;;0.30;;
12689;SDS011;6409;56.294;14.480;2023-05-18T03:04:09;0.37;;;0.37;;
12689;SDS011;6409;56.294;14.480;2023-05-18T03:06:36;0.20;;;0.20;;
12689;SDS011;6409;56.294;14.480;2023-05-18T03:09:04;0.20;;;0.20;;
12689;SDS011;6409;56.294;14.480;2023-05-18T03:11:31;0.37;;;0.30;;
12689;SDS011;6409;56.294;14.480;2023-05-18T03:13:58;0.20;;;0.20;;
12689;SDS011;6409;56.294;14.480;2023-05-18T03:16:24;0.30;;;0.30;;
12689;SDS011;6409;56.294;14.480;2023-05-18T03:18:52;0.30;;;0.30;;
12689;SDS011;6409;56.294;14.480;2023-05-18T03:21:19;0.20;;;0.20;;
12689;SDS011;6409;56.294;14.480;2023-05-18T03:23:46;0.40;;;0.40;;
12689;SDS011;6409;56.294;14.480;2023-05-18T03:26:15;0.30;;;0.30;;
12689;SDS011;6409;56.294;14.480;2023-05-18T03:28:42;0.30;;;0.30;;
12689;SDS011;6409;56.294;14.480;2023-05-18T03:31:09;0.33;;;0.33;;
12689;SDS011;6409;56.294;14.480;2023-05-18T03:33:36;1.50;;;1.13;;
12689;SDS011;6409;56.294;14.480;2023-05-18T03:36:03;0.30;;;0.30;;
12689;SDS011;6409;56.294;14.480;2023-05-18T03:38:30;0.30;;;0.30;;
12689;SDS011;6409;56.294;14.480;2023-05-18T03:40:57;5.43;;;0.70;;
12689;SDS011;6409;56.294;14.480;2023-05-18T03:43:25;0.27;;;0.27;;
12689;SDS011;6409;56.294;14.480;2023-05-18T03:45:53;0.53;;;0.40;;
12689;SDS011;6409;56.294;14.480;2023-05-18T03:48:21;0.30;;;0.30;;
12689;SDS011;6409;56.294;14.480;2023-05-18T03:50:48;0.37;;;0.37;;
12689;SDS011;6409;56.294;14.480;2023-05-18T03:53:15;4.37;;;0.97;;
12689;SDS011;6409;56.294;14.480;2023-05-18T03:55:43;0.30;;;0.30;;
12689;SDS011;6409;56.294;14.480;2023-05-18T03:58:10;0.30;;;0.30;;
12689;SDS011;6409;56.294;14.480;2023-05-18T04:00:38;0.30;;;0.30;;
12689;SDS011;6409;56.294;14.480;2023-05-18T04:03:06;0.30;;;0.30;;
12689;SDS011;6409;56.294;14.480;2023-05-18T04:05:36;0.57;;;0.57;;
12689;SDS011;6409;56.294;14.480;2023-05-18T04:08:03;0.50;;;0.50;;
12689;SDS011;6409;56.294;14.480;2023-05-18T04:10:31;0.40;;;0.40;;
12689;SDS011;6409;56.294;14.480;2023-05-18T04:12:58;0.30;;;0.30;;
12689;SDS011;6409;56.294;14.480;2023-05-18T04:15:25;0.20;;;0.20;;
12689;SDS011;6409;56.294;14.480;2023-05-18T04:17:53;0.33;;;0.33;;
12689;SDS011;6409;56.294;14.480;2023-05-18T04:20:20;0.30;;;0.30;;
12689;SDS011;6409;56.294;14.480;2023-05-18T04:22:47;0.20;;;0.20;;
12689;SDS011;6409;56.294;14.480;2023-05-18T04:25:14;0.50;;;0.50;;
12689;SDS011;6409;56.294;14.480;2023-05-18T04:27:42;0.30;;;0.30;;
12689;SDS011;6409;56.294;14.480;2023-05-18T04:30:09;0.30;;;0.30;;
12689;SDS011;6409;56.294;14.480;2023-05-18T04:32:37;0.30;;;0.30;;
12689;SDS011;6409;56.294;14.480;2023-05-18T04:35:08;0.30;;;0.30;;
12689;SDS011;6409;56.294;14.480;2023-05-18T04:37:36;0.57;;;0.40;;
12689;SDS011;6409;56.294;14.480;2023-05-18T04:40:05;0.30;;;0.30;;
12689;SDS011;6409;56.294;14.480;2023-05-18T04:42:36;0.30;;;0.30;;
12689;SDS011;6409;56.294;14.480;2023-05-18T04:45:10;0.70;;;0.50;;
12689;SDS011;6409;56.294;14.480;2023-05-18T04:47:40;0.43;;;0.43;;
12689;SDS011;6409;56.294;14.480;2023-05-18T04:50:11;0.40;;;0.40;;
12689;SDS011;6409;56.294;14.480;2023-05-18T04:52:40;0.40;;;0.40;;
12689;SDS011;6409;56.294;14.480;2023-05-18T04:55:13;0.30;;;0.30;;
12689;SDS011;6409;56.294;14.480;2023-05-18T04:57:40;0.57;;;0.50;;
12689;SDS011;6409;56.294;14.480;2023-05-18T05:00:09;0.70;;;0.70;;
12689;SDS011;6409;56.294;14.480;2023-05-18T05:02:37;0.40;;;0.40;;
12689;SDS011;6409;56.294;14.480;2023-05-18T05:05:04;2.43;;;0.60;;
12689;SDS011;6409;56.294;14.480;2023-05-18T05:07:33;0.93;;;0.73;;
12689;SDS011;6409;56.294;14.480;2023-05-18T05:10:00;0.90;;;0.70;;
12689;SDS011;6409;56.294;14.480;2023-05-18T05:12:27;3.00;;;1.13;;
12689;SDS011;6409;56.294;14.480;2023-05-18T05:14:54;1.23;;;1.10;;
12689;SDS011;6409;56.294;14.480;2023-05-18T05:17:21;1.33;;;0.90;;
12689;SDS011;6409;56.294;14.480;2023-05-18T05:19:48;1.00;;;0.90;;
12689;SDS011;6409;56.294;14.480;2023-05-18T05:22:15;1.77;;;1.50;;
12689;SDS011;6409;56.294;14.480;2023-05-18T05:24:45;3.80;;;1.37;;
12689;SDS011;6409;56.294;14.480;2023-05-18T05:27:12;7.20;;;1.30;;
12689;SDS011;6409;56.294;14.480;2023-05-18T05:29:39;6.33;;;1.27;;
12689;SDS011;6409;56.294;14.480;2023-05-18T05:32:07;2.40;;;1.20;;
12689;SDS011;6409;56.294;14.480;2023-05-18T05:34:34;1.50;;;1.10;;
12689;SDS011;6409;56.294;14.480;2023-05-18T05:37:01;8.47;;;1.90;;
12689;SDS011;6409;56.294;14.480;2023-05-18T05:39:28;6.60;;;1.43;;
12689;SDS011;6409;56.294;14.480;2023-05-18T05:41:56;8.93;;;1.80;;
12689;SDS011;6409;56.294;14.480;2023-05-18T05:44:23;3.80;;;1.40;;
12689;SDS011;6409;56.294;14.480;2023-05-18T05:46:51;1.60;;;1.40;;
12689;SDS011;6409;56.294;14.480;2023-05-18T05:49:17;2.10;;;1.43;;
12689;SDS011;6409;56.294;14.480;2023-05-18T05:51:44;7.20;;;1.53;;
12689;SDS011;6409;56.294;14.480;2023-05-18T05:54:11;1.67;;;1.30;;
12689;SDS011;6409;56.294;14.480;2023-05-18T05:56:38;2.33;;;1.40;;
12689;SDS011;6409;56.294;14.480;2023-05-18T05:59:07;3.17;;;1.73;;
12689;SDS011;6409;56.294;14.480;2023-05-18T06:01:35;6.43;;;2.07;;
12689;SDS011;6409;56.294;14.480;2023-05-18T06:04:03;2.03;;;1.30;;
12689;SDS011;6409;56.294;14.480;2023-05-18T06:06:35;6.90;;;1.63;;
12689;SDS011;6409;56.294;14.480;2023-05-18T06:09:03;2.90;;;1.60;;
12689;SDS011;6409;56.294;14.480;2023-05-18T06:11:30;1.30;;;1.30;;
12689;SDS011;6409;56.294;14.480;2023-05-18T06:13:58;4.47;;;1.77;;
12689;SDS011;6409;56.294;14.480;2023-05-18T06:16:27;4.10;;;1.60;;
12689;SDS011;6409;56.294;14.480;2023-05-18T06:18:54;4.33;;;1.60;;
12689;SDS011;6409;56.294;14.480;2023-05-18T06:21:22;3.57;;;1.70;;
12689;SDS011;6409;56.294;14.480;2023-05-18T06:23:49;3.40;;;1.77;;
12689;SDS011;6409;56.294;14.480;2023-05-18T06:26:16;3.07;;;2.20;;
12689;SDS011;6409;56.294;14.480;2023-05-18T06:28:43;4.20;;;2.00;;
12689;SDS011;6409;56.294;14.480;2023-05-18T06:31:10;2.40;;;1.50;;
12689;SDS011;6409;56.294;14.480;2023-05-18T06:33:39;2.83;;;1.70;;
12689;SDS011;6409;56.294;14.480;2023-05-18T06:36:06;5.63;;;2.10;;
12689;SDS011;6409;56.294;14.480;2023-05-18T06:38:33;5.83;;;2.27;;
12689;SDS011;6409;56.294;14.480;2023-05-18T06:41:00;2.93;;;2.00;;
12689;SDS011;6409;56.294;14.480;2023-05-18T06:43:27;2.10;;;1.90;;
12689;SDS011;6409;56.294;14.480;2023-05-18T06:45:54;2.20;;;2.00;;
12689;SDS011;6409;56.294;14.480;2023-05-18T06:48:24;2.10;;;1.90;;
12689;SDS011;6409;56.294;14.480;2023-05-18T06:50:53;1.70;;;1.60;;
12689;SDS011;6409;56.294;14.480;2023-05-18T06:53:20;3.63;;;2.83;;
12689;SDS011;6409;56.294;14.480;2023-05-18T06:55:47;10.40;;;2.60;;
12689;SDS011;6409;56.294;14.480;2023-05-18T06:58:14;3.13;;;1.97;;
12689;SDS011;6409;56.294;14.480;2023-05-18T07:00:41;2.83;;;2.50;;
12689;SDS011;6409;56.294;14.480;2023-05-18T07:03:08;2.00;;;1.90;;
12689;SDS011;6409;56.294;14.480;2023-05-18T07:05:35;7.07;;;2.17;;
12689;SDS011;6409;56.294;14.480;2023-05-18T07:08:04;4.10;;;2.53;;
12689;SDS011;6409;56.294;14.480;2023-05-18T07:10:31;6.37;;;2.17;;
12689;SDS011;6409;56.294;14.480;2023-05-18T07:12:59;5.17;;;2.20;;
12689;SDS011;6409;56.294;14.480;2023-05-18T07:15:26;2.00;;;1.83;;
12689;SDS011;6409;56.294;14.480;2023-05-18T07:17:53;7.90;;;2.37;;
12689;SDS011;6409;56.294;14.480;2023-05-18T07:20:20;2.87;;;2.13;;
12689;SDS011;6409;56.294;14.480;2023-05-18T07:22:47;2.30;;;2.07;;
12689;SDS011;6409;56.294;14.480;2023-05-18T07:25:16;2.50;;;2.30;;
12689;SDS011;6409;56.294;14.480;2023-05-18T07:27:45;1.90;;;1.80;;
12689;SDS011;6409;56.294;14.480;2023-05-18T07:30:12;2.10;;;2.00;;
12689;SDS011;6409;56.294;14.480;2023-05-18T07:32:39;6.27;;;2.30;;
12689;SDS011;6409;56.294;14.480;2023-05-18T07:35:09;2.00;;;1.90;;
12689;SDS011;6409;56.294;14.480;2023-05-18T07:37:36;2.20;;;2.10;;
12689;SDS011;6409;56.294;14.480;2023-05-18T07:40:04;3.43;;;1.97;;
12689;SDS011;6409;56.294;14.480;2023-05-18T07:42:35;4.13;;;2.10;;
12689;SDS011;6409;56.294;14.480;2023-05-18T07:45:02;2.43;;;2.13;;
12689;SDS011;6409;56.294;14.480;2023-05-18T07:47:30;2.13;;;1.97;;
12689;SDS011;6409;56.294;14.480;2023-05-18T07:49:57;2.43;;;2.23;;
12689;SDS011;6409;56.294;14.480;2023-05-18T07:52:24;3.07;;;2.23;;
12689;SDS011;6409;56.294;14.480;2023-05-18T07:54:51;3.90;;;2.00;;
12689;SDS011;6409;56.294;14.480;2023-05-18T07:57:20;2.90;;;2.47;;
12689;SDS011;6409;56.294;14.480;2023-05-18T07:59:48;2.10;;;2.00;;
12689;SDS011;6409;56.294;14.480;2023-05-18T08:02:15;3.63;;;2.30;;
12689;SDS011;6409;56.294;14.480;2023-05-18T08:04:43;7.13;;;2.93;;
12689;SDS011;6409;56.294;14.480;2023-05-18T08:07:10;2.60;;;2.20;;
12689;SDS011;6409;56.294;14.480;2023-05-18T08:09:37;6.53;;;2.70;;
12689;SDS011;6409;56.294;14.480;2023-05-18T08:12:04;2.50;;;2.30;;
12689;SDS011;6409;56.294;14.480;2023-05-18T08:14:32;3.70;;;2.40;;
12689;SDS011;6409;56.294;14.480;2023-05-18T08:17:01;4.50;;;2.50;;
12689;SDS011;6409;56.294;14.480;2023-05-18T08:19:29;3.90;;;2.50;;
12689;SDS011;6409;56.294;14.480;2023-05-18T08:21:56;3.80;;;2.60;;
12689;SDS011;6409;56.294;14.480;2023-05-18T08:24:22;2.33;;;2.13;;
12689;SDS011;6409;56.294;14.480;2023-05-18T08:26:49;3.77;;;2.63;;
12689;SDS011;6409;56.294;14.480;2023-05-18T08:29:16;2.40;;;2.30;;
12689;SDS011;6409;56.294;14.480;2023-05-18T08:31:43;3.23;;;2.50;;
12689;SDS011;6409;56.294;14.480;2023-05-18T08:34:12;3.90;;;2.60;;
12689;SDS011;6409;56.294;14.480;2023-05-18T08:36:38;3.30;;;3.00;;
12689;SDS011;6409;56.294;14.480;2023-05-18T08:39:08;3.63;;;3.03;;
12689;SDS011;6409;56.294;14.480;2023-05-18T08:41:37;5.77;;;2.90;;
12689;SDS011;6409;56.294;14.480;2023-05-18T08:44:09;5.67;;;3.10;;
12689;SDS011;6409;56.294;14.480;2023-05-18T08:46:40;7.70;;;3.13;;
12689;SDS011;6409;56.294;14.480;2023-05-18T08:49:08;3.80;;;2.87;;
12689;SDS011;6409;56.294;14.480;2023-05-18T08:51:36;2.93;;;2.63;;
12689;SDS011;6409;56.294;14.480;2023-05-18T08:54:03;4.83;;;2.57;;
12689;SDS011;6409;56.294;14.480;2023-05-18T08:56:31;3.17;;;2.87;;
12689;SDS011;6409;56.294;14.480;2023-05-18T08:58:59;3.17;;;2.80;;
12689;SDS011;6409;56.294;14.480;2023-05-18T09:01:31;3.00;;;2.80;;
12689;SDS011;6409;56.294;14.480;2023-05-18T09:03:59;4.70;;;3.03;;
12689;SDS011;6409;56.294;14.480;2023-05-18T09:06:26;2.80;;;2.67;;
12689;SDS011;6409;56.294;14.480;2023-05-18T09:08:55;2.90;;;2.70;;
12689;SDS011;6409;56.294;14.480;2023-05-18T09:11:23;3.03;;;2.77;;
12689;SDS011;6409;56.294;14.480;2023-05-18T09:13:51;2.70;;;2.60;;
12689;SDS011;6409;56.294;14.480;2023-05-18T09:16:18;3.07;;;2.77;;
12689;SDS011;6409;56.294;14.480;2023-05-18T09:18:45;5.60;;;2.60;;
12689;SDS011;6409;56.294;14.480;2023-05-18T09:21:12;3.30;;;2.53;;
12689;SDS011;6409;56.294;14.480;2023-05-18T09:23:39;5.63;;;2.53;;
12689;SDS011;6409;56.294;14.480;2023-05-18T09:26:07;3.17;;;2.60;;
12689;SDS011;6409;56.294;14.480;2023-05-18T09:28:35;3.00;;;2.80;;
12689;SDS011;6409;56.294;14.480;2023-05-18T09:31:03;3.50;;;2.70;;
12689;SDS011;6409;56.294;14.480;2023-05-18T09:33:32;3.10;;;2.90;;
12689;SDS011;6409;56.294;14.480;2023-05-18T09:36:03;5.23;;;3.17;;
12689;SDS011;6409;56.294;14.480;2023-05-18T09:38:35;8.17;;;3.53;;
12689;SDS011;6409;56.294;14.480;2023-05-18T09:41:02;17.73;;;3.50;;
12689;SDS011;6409;56.294;14.480;2023-05-18T09:43:30;3.20;;;3.00;;
12689;SDS011;6409;56.294;14.480;2023-05-18T09:45:57;3.30;;;2.70;;
12689;SDS011;6409;56.294;14.480;2023-05-18T09:48:31;6.63;;;3.53;;
12689;SDS011;6409;56.294;14.480;2023-05-18T09:50:58;7.67;;;3.60;;
12689;SDS011;6409;56.294;14.480;2023-05-18T09:53:25;3.20;;;2.90;;
12689;SDS011;6409;56.294;14.480;2023-05-18T09:55:52;3.00;;;2.80;;
12689;SDS011;6409;56.294;14.480;2023-05-18T09:58:18;3.33;;;3.10;;
12689;SDS011;6409;56.294;14.480;2023-05-18T10:00:47;3.00;;;2.80;;
12689;SDS011;6409;56.294;14.480;2023-05-18T10:03:16;9.87;;;3.90;;
12689;SDS011;6409;56.294;14.480;2023-05-18T10:05:43;3.27;;;2.97;;
12689;SDS011;6409;56.294;14.480;2023-05-18T10:08:12;3.20;;;2.80;;
12689;SDS011;6409;56.294;14.480;2023-05-18T10:10:40;9.23;;;3.27;;
12689;SDS011;6409;56.294;14.480;2023-05-18T10:13:11;6.07;;;3.50;;
12689;SDS011;6409;56.294;14.480;2023-05-18T10:15:46;2.80;;;2.60;;
12689;SDS011;6409;56.294;14.480;2023-05-18T10:18:17;4.50;;;3.10;;
12689;SDS011;6409;56.294;14.480;2023-05-18T10:20:47;5.03;;;3.17;;
12689;SDS011;6409;56.294;14.480;2023-05-18T10:23:15;3.57;;;2.87;;
12689;SDS011;6409;56.294;14.480;2023-05-18T10:25:44;4.33;;;2.90;;
12689;SDS011;6409;56.294;14.480;2023-05-18T10:28:13;3.70;;;2.57;;
12689;SDS011;6409;56.294;14.480;2023-05-18T10:30:51;2.83;;;2.60;;
12689;SDS011;6409;56.294;14.480;2023-05-18T10:33:19;6.00;;;2.97;;
12689;SDS011;6409;56.294;14.480;2023-05-18T10:35:47;3.40;;;3.00;;
12689;SDS011;6409;56.294;14.480;2023-05-18T10:38:16;3.10;;;2.77;;
12689;SDS011;6409;56.294;14.480;2023-05-18T10:40:45;3.50;;;2.93;;
12689;SDS011;6409;56.294;14.480;2023-05-18T10:43:14;2.90;;;2.70;;
12689;SDS011;6409;56.294;14.480;2023-05-18T10:45:43;3.20;;;2.93;;
12689;SDS011;6409;56.294;14.480;2023-05-18T10:48:14;4.53;;;2.90;;
12689;SDS011;6409;56.294;14.480;2023-05-18T10:50:41;8.73;;;3.17;;
12689;SDS011;6409;56.294;14.480;2023-05-18T10:53:08;3.73;;;2.97;;
12689;SDS011;6409;56.294;14.480;2023-05-18T10:55:35;5.97;;;3.07;;
12689;SDS011;6409;56.294;14.480;2023-05-18T10:58:03;3.90;;;3.27;;
12689;SDS011;6409;56.294;14.480;2023-05-18T11:00:34;2.93;;;2.73;;
12689;SDS011;6409;56.294;14.480;2023-05-18T11:03:02;4.33;;;3.30;;
12689;SDS011;6409;56.294;14.480;2023-05-18T11:05:32;4.97;;;3.10;;
12689;SDS011;6409;56.294;14.480;2023-05-18T11:07:59;3.30;;;3.00;;
12689;SDS011;6409;56.294;14.480;2023-05-18T11:10:32;4.47;;;2.90;;
12689;SDS011;6409;56.294;14.480;2023-05-18T11:13:00;3.90;;;3.17;;
12689;SDS011;6409;56.294;14.480;2023-05-18T11:18:36;4.07;;;3.10;;
12689;SDS011;6409;56.294;14.480;2023-05-18T11:26:43;2.80;;;2.70;;
12689;SDS011;6409;56.294;14.480;2023-05-18T11:29:20;2.87;;;2.67;;
12689;SDS011;6409;56.294;14.480;2023-05-18T11:31:49;3.40;;;3.10;;
12689;SDS011;6409;56.294;14.480;2023-05-18T11:34:39;6.80;;;3.03;;
12689;SDS011;6409;56.294;14.480;2023-05-18T11:37:10;2.90;;;2.70;;
12689;SDS011;6409;56.294;14.480;2023-05-18T11:39:37;2.90;;;2.70;;
12689;SDS011;6409;56.294;14.480;2023-05-18T11:42:06;4.13;;;2.67;;
12689;SDS011;6409;56.294;14.480;2023-05-18T11:44:33;4.87;;;3.30;;
12689;SDS011;6409;56.294;14.480;2023-05-18T11:47:01;3.23;;;2.97;;
12689;SDS011;6409;56.294;14.480;2023-05-18T11:49:30;4.70;;;2.80;;
12689;SDS011;6409;56.294;14.480;2023-05-18T11:52:02;2.97;;;2.77;;
12689;SDS011;6409;56.294;14.480;2023-05-18T11:54:42;4.50;;;2.93;;
12689;SDS011;6409;56.294;14.480;2023-05-18T11:57:11;3.13;;;2.93;;
12689;SDS011;6409;56.294;14.480;2023-05-18T11:59:40;5.20;;;3.30;;
12689;SDS011;6409;56.294;14.480;2023-05-18T12:02:08;3.07;;;2.87;;
12689;SDS011;6409;56.294;14.480;2023-05-18T12:04:46;3.20;;;2.67;;
12689;SDS011;6409;56.294;14.480;2023-05-18T12:07:14;3.10;;;2.80;;
12689;SDS011;6409;56.294;14.480;2023-05-18T12:09:45;6.83;;;3.23;;
12689;SDS011;6409;56.294;14.480;2023-05-18T12:12:13;3.80;;;3.27;;
12689;SDS011;6409;56.294;14.480;2023-05-18T12:14:44;9.23;;;3.03;;
12689;SDS011;6409;56.294;14.480;2023-05-18T12:17:14;3.03;;;2.70;;
12689;SDS011;6409;56.294;14.480;2023-05-18T12:19:41;2.73;;;2.60;;
12689;SDS011;6409;56.294;14.480;2023-05-18T12:22:09;6.63;;;2.97;;
12689;SDS011;6409;56.294;14.480;2023-05-18T12:24:36;4.00;;;3.17;;
12689;SDS011;6409;56.294;14.480;2023-05-18T12:27:06;3.50;;;3.10;;
12689;SDS011;6409;56.294;14.480;2023-05-18T12:29:36;5.77;;;3.20;;
12689;SDS011;6409;56.294;14.480;2023-05-18T12:32:05;2.83;;;2.63;;
12689;SDS011;6409;56.294;14.480;2023-05-18T12:34:34;5.03;;;3.20;;
12689;SDS011;6409;56.294;14.480;2023-05-18T12:37:02;6.00;;;3.43;;
12689;SDS011;6409;56.294;14.480;2023-05-18T12:39:29;5.10;;;2.97;;
12689;SDS011;6409;56.294;14.480;2023-05-18T12:42:10;6.17;;;3.43;;
12689;SDS011;6409;56.294;14.480;2023-05-18T12:44:38;3.37;;;2.47;;
12689;SDS011;6409;56.294;14.480;2023-05-18T12:47:07;3.27;;;2.83;;
12689;SDS011;6409;56.294;14.480;2023-05-18T12:49:36;2.60;;;2.50;;
12689;SDS011;6409;56.294;14.480;2023-05-18T12:52:07;7.03;;;2.87;;
12689;SDS011;6409;56.294;14.480;2023-05-18T12:54:35;4.10;;;3.30;;
12689;SDS011;6409;56.294;14.480;2023-05-18T12:57:04;3.23;;;2.80;;
12689;SDS011;6409;56.294;14.480;2023-05-18T12:59:35;4.60;;;3.40;;
12689;SDS011;6409;56.294;14.480;2023-05-18T13:02:23;3.13;;;2.83;;
12689;SDS011;6409;56.294;14.480;2023-05-18T13:04:59;3.57;;;3.27;;
12689;SDS011;6409;56.294;14.480;2023-05-18T13:07:27;3.70;;;3.10;;
12689;SDS011;6409;56.294;14.480;2023-05-18T13:09:58;5.47;;;3.03;;
12689;SDS011;6409;56.294;14.480;2023-05-18T13:12:37;3.30;;;3.10;;
12689;SDS011;6409;56.294;14.480;2023-05-18T13:15:13;3.30;;;3.10;;
12689;SDS011;6409;56.294;14.480;2023-05-18T13:17:47;3.53;;;3.10;;
12689;SDS011;6409;56.294;14.480;2023-05-18T13:20:20;3.20;;;3.00;;
12689;SDS011;6409;56.294;14.480;2023-05-18T13:22:48;3.70;;;3.33;;
12689;SDS011;6409;56.294;14.480;2023-05-18T13:25:15;3.00;;;2.80;;
12689;SDS011;6409;56.294;14.480;2023-05-18T13:27:42;4.80;;;2.70;;
12689;SDS011;6409;56.294;14.480;2023-05-18T13:30:10;3.10;;;2.90;;
12689;SDS011;6409;56.294;14.480;2023-05-18T13:32:38;3.10;;;2.90;;
12689;SDS011;6409;56.294;14.480;2023-05-18T13:35:05;3.63;;;3.33;;
12689;SDS011;6409;56.294;14.480;2023-05-18T13:37:32;3.60;;;3.00;;
12689;SDS011;6409;56.294;14.480;2023-05-18T13:39:59;3.53;;;2.90;;
12689;SDS011;6409;56.294;14.480;2023-05-18T13:42:27;2.97;;;2.87;;
12689;SDS011;6409;56.294;14.480;2023-05-18T13:44:53;5.57;;;3.33;;
12689;SDS011;6409;56.294;14.480;2023-05-18T13:47:21;3.57;;;3.10;;
12689;SDS011;6409;56.294;14.480;2023-05-18T13:49:49;3.90;;;3.40;;
12689;SDS011;6409;56.294;14.480;2023-05-18T13:52:16;5.53;;;3.33;;
12689;SDS011;6409;56.294;14.480;2023-05-18T13:54:42;5.00;;;2.90;;
12689;SDS011;6409;56.294;14.480;2023-05-18T13:57:09;4.67;;;3.60;;
12689;SDS011;6409;56.294;14.480;2023-05-18T13:59:36;3.13;;;2.83;;
12689;SDS011;6409;56.294;14.480;2023-05-18T14:02:03;5.83;;;3.17;;
12689;SDS011;6409;56.294;14.480;2023-05-18T14:04:30;3.53;;;3.23;;
12689;SDS011;6409;56.294;14.480;2023-05-18T14:06:59;3.63;;;3.33;;
12689;SDS011;6409;56.294;14.480;2023-05-18T14:09:26;2.70;;;2.60;;
12689;SDS011;6409;56.294;14.480;2023-05-18T14:11:54;3.43;;;3.10;;
12689;SDS011;6409;56.294;14.480;2023-05-18T14:14:22;4.57;;;3.07;;
12689;SDS011;6409;56.294;14.480;2023-05-18T14:16:49;3.00;;;2.80;;
12689;SDS011;6409;56.294;14.480;2023-05-18T14:19:16;5.93;;;3.20;;
12689;SDS011;6409;56.294;14.480;2023-05-18T14:21:42;3.93;;;3.13;;
12689;SDS011;6409;56.294;14.480;2023-05-18T14:24:11;5.03;;;3.17;;
12689;SDS011;6409;56.294;14.480;2023-05-18T14:26:39;3.87;;;3.00;;
12689;SDS011;6409;56.294;14.480;2023-05-18T14:29:06;4.30;;;3.07;;
12689;SDS011;6409;56.294;14.480;2023-05-18T14:31:33;4.27;;;3.10;;
12689;SDS011;6409;56.294;14.480;2023-05-18T14:34:00;16.80;;;3.10;;
12689;SDS011;6409;56.294;14.480;2023-05-18T14:36:27;3.10;;;2.90;;
12689;SDS011;6409;56.294;14.480;2023-05-18T14:38:54;2.87;;;2.63;;
12689;SDS011;6409;56.294;14.480;2023-05-18T14:41:22;5.43;;;3.07;;
12689;SDS011;6409;56.294;14.480;2023-05-18T14:43:49;6.70;;;3.73;;
12689;SDS011;6409;56.294;14.480;2023-05-18T14:46:17;3.17;;;2.97;;
12689;SDS011;6409;56.294;14.480;2023-05-18T14:48:44;3.47;;;2.83;;
12689;SDS011;6409;56.294;14.480;2023-05-18T14:51:11;4.50;;;2.90;;
12689;SDS011;6409;56.294;14.480;2023-05-18T14:53:40;3.40;;;2.80;;
12689;SDS011;6409;56.294;14.480;2023-05-18T14:56:07;3.13;;;2.93;;
12689;SDS011;6409;56.294;14.480;2023-05-18T14:58:35;3.00;;;2.80;;
12689;SDS011;6409;56.294;14.480;2023-05-18T15:01:02;3.00;;;2.80;;
12689;SDS011;6409;56.294;14.480;2023-05-18T15:03:29;9.13;;;3.57;;